If you wish to contribute or participate in the discussions about articles you are invited to join SKYbrary as a registered user

 Actions

Annette Island Airport

From SKYbrary Wiki

PANT
Airport
ICAO: PANT – IATA: ANN
Summary
Name Annette Island Airport
Region North America
Territory Alaska US.gif
Location Annette Island, Alaska
Serving Annette Island
Elevation 36.271 m
119 ft
119 ft36.271 m
Type medium airport
Coordinates 55° 2' 32.7696", -131° 34' 20.0388"
Runways
Designator Length Width Surface ROPS
2/20 1740 m5,708.661 ft 46 m150.919 ft GVL /
12/30 2284 m7,493.438 ft 46 m150.919 ft ASP /
METAR
Observation PANT 170753Z AUTO VRB04KT 10SM BKN037 OVC044 06/04 A2980 RMK SLP091 T00560039 TSNO VIA AUTODIAL
Station Annette, Annette Island Airport
Date/Time 17 December 2017 07:53:00
Wind direction °
Wind speed 04 kts
Lowest cloud amount broken clouds
Temperature 5.6°C
Dew point 3.9°C
Humidity 88%
QNH hPa
Weather condition n/a

Maps

Terrain

Loading map...

Airport Layout

Loading map...


Accidents & Serious Incidents at or in vicinity of PANT

None on SKYbrary